Flight Track Log - Related Links

Times and Time Zones

All times are in EDT time to prevent confusion due to time zone crossing. See the UPS1333 flight status page for this flight to view local times or setup timezone preferences in your user account.

Time Position Orientation Groundspeed Altitude Reporting Facility
EDT Latitude Longitude Course Direction KTS MPH feet Rate Location/Type
Thu 10:02:33 PM 26.6800 -80.0400 90° East 180 207 3,300  Level FlightAware ADS-B
Thu 10:03:00 PM 26.6880 -80.0150 70° East 224 258 4,100 1,688 Climbing FlightAware ADS-B
Thu 10:03:05 PM 26.6910 -80.0110 50° Northeast 234 269 4,200 1,800 Climbing FlightAware ADS-B
Thu 10:03:10 PM 26.6960 -80.0060 42° Northeast 247 284 4,400 2,250 Climbing FlightAware ADS-B
Thu 10:03:21 PM 26.7070 -79.9990 30° Northeast 263 303 4,800 3,474 Climbing FlightAware ADS-B
Thu 10:03:48 PM 26.7400 -79.9910 12° North 275 316 6,600 4,125 Climbing FlightAware ADS-B
Thu 10:04:09 PM 26.7680 -79.9970 349° North 281 323 8,100 4,345 Climbing FlightAware ADS-B
Thu 10:04:17 PM 26.7780 -80.0020 336° Northwest 282 325 8,700 3,120 Climbing FlightAware ADS-B
Thu 10:04:34 PM 26.7930 -80.0140 324° Northwest 282 325 9,400 2,786 Climbing FlightAware ADS-B
Thu 10:04:45 PM 26.8040 -80.0260 316° Northwest 296 341 10,000 3,840 Climbing FlightAware ADS-B
Thu 10:04:59 PM 26.8150 -80.0450 303° West 294 338 11,000 3,176 Climbing FlightAware ADS-B
Thu 10:05:19 PM 26.8250 -80.0750 290° West 317 365 11,800 1,615 Climbing FlightAware ADS-B
Thu 10:05:51 PM 26.8340 -80.1330 280° West 368 423 12,400 1,714 Climbing FlightAware ADS-B
Thu 10:06:29 PM 26.8440 -80.2060 279° West 384 442 13,800 1,184 Climbing FlightAware ADS-B
Thu 10:07:07 PM 26.8560 -80.2810 280° West 383 441 13,900 122 Climbing FlightAware ADS-B
Thu 10:07:18 PM 26.8620 -80.3020 288° West 383 441 13,900 545 Level FlightAware ADS-B
Thu 10:07:29 PM 26.8720 -80.3210 301° West 387 445 14,100 2,348 Climbing FlightAware ADS-B
Thu 10:07:41 PM 26.8860 -80.3370 314° West 391 450 14,800 3,214 Climbing FlightAware ADS-B
Thu 10:07:57 PM 26.9100 -80.3570 323° Northwest 390 449 15,600 2,444 Climbing FlightAware ADS-B
Thu 10:08:35 PM 26.9760 -80.3880 337° Northwest 403 464 17,000 2,526 Climbing FlightAware ADS-B
Thu 10:09:13 PM 27.0420 -80.4180 338° Northwest 416 479 18,800 3,048 Climbing FlightAware ADS-B
Thu 10:09:38 PM 27.0870 -80.4380 338° Northwest 416 479 20,200 2,906 Climbing FlightAware ADS-B
Thu 10:10:17 PM 27.1570 -80.4690 338° Northwest 417 480 21,900 2,494 Climbing FlightAware ADS-B
Thu 10:10:55 PM 27.2270 -80.5010 338° Northwest 435 501 23,400 2,282 Climbing FlightAware ADS-B
Thu 10:11:28 PM 27.2910 -80.5300 338° Northwest 436 502 24,600 2,264 Climbing FlightAware ADS-B
Thu 10:11:48 PM 27.3324 -80.5485 338° Northwest 448 516 25,400 2,588 Climbing FlightAware ADS-B
Thu 10:12:19 PM 27.3934 -80.5762 338° Northwest 446 513 26,800 2,164 Climbing FlightAware ADS-B
Thu 10:12:49 PM 27.4500 -80.6020 338° Northwest 454 522 27,600 1,690 Climbing FlightAware ADS-B
Thu 10:13:30 PM 27.5313 -80.6388 338° Northwest 461 531 28,800 1,974 Climbing FlightAware ADS-B
Thu 10:14:05 PM 27.5981 -80.6692 338° Northwest 458 527 30,100 2,215 Climbing FlightAware ADS-B
Thu 10:14:35 PM 27.6585 -80.6968 338° Northwest 454 522 31,200 2,100 Climbing FlightAware ADS-B
Thu 10:15:25 PM 27.7489 -80.7380 338° Northwest 448 516 32,900 2,222 Climbing FlightAware ADS-B
Thu 10:15:56 PM 27.8138 -80.7677 338° Northwest 435 501 34,200 2,066 Climbing FlightAware ADS-B
Thu 10:16:26 PM 27.8683 -80.7927 338° Northwest 432 497 35,000 787 Climbing FlightAware ADS-B
Thu 10:16:57 PM 27.9259 -80.8190 338° Northwest 433 498 35,000  Level FlightAware ADS-B
Thu 10:17:37 PM 28.0007 -80.8532 338° Northwest 429 494 35,000  Level FlightAware ADS-B
Thu 10:18:08 PM 28.0579 -80.8796 338° Northwest 427 491 35,000  Level FlightAware ADS-B
Thu 10:18:38 PM 28.1139 -80.9054 338° Northwest 426 490 35,000  Level FlightAware ADS-B
Thu 10:19:09 PM 28.1687 -80.9307 338° Northwest 428 493 35,000  Level FlightAware ADS-B
Thu 10:19:39 PM 28.2240 -80.9560 338° Northwest 427 491 35,000  Level FlightAware ADS-B
Thu 10:19:59 PM 28.2616 -80.9735 338° Northwest 427 491 35,000  Level FlightAware ADS-B
Thu 10:20:30 PM 28.3181 -80.9996 338° Northwest 425 489 35,000  Level FlightAware ADS-B
Thu 10:21:04 PM 28.3802 -81.0281 338° Northwest 425 489 35,000  Level FlightAware ADS-B
Thu 10:21:35 PM 28.4335 -81.0527 338° Northwest 425 489 35,000  Level FlightAware ADS-B
Thu 10:22:05 PM 28.4919 -81.0797 338° Northwest 424 488 35,000  Level FlightAware ADS-B
Thu 10:22:35 PM 28.5415 -81.1027 338° Northwest 425 489 35,000  Level FlightAware ADS-B (VIDP / DEL)
Thu 10:23:06 PM 28.6027 -81.1312 338° Northwest 425 489 35,000  Level FlightAware ADS-B
Thu 10:23:36 PM 28.6577 -81.1568 338° Northwest 426 490 35,000  Level FlightAware ADS-B
Thu 10:24:07 PM 28.7084 -81.1804 338° Northwest 426 490 35,000  Level FlightAware ADS-B
Thu 10:24:45 PM 28.7794 -81.2133 338° Northwest 425 489 35,000  Level FlightAware ADS-B (VIDP / DEL)
Thu 10:25:18 PM 28.8413 -81.2422 338° Northwest 425 489 35,000  Level FlightAware ADS-B
Thu 10:25:48 PM 28.8967 -81.2682 338° Northwest 425 489 35,000  Level FlightAware ADS-B
Thu 10:26:19 PM 28.9527 -81.2944 338° Northwest 426 490 35,000  Level FlightAware ADS-B
Thu 10:26:49 PM 29.0097 -81.3210 338° Northwest 426 490 35,000  Level FlightAware ADS-B
Thu 10:27:24 PM 29.0725 -81.3504 338° Northwest 424 488 35,000  Level FlightAware ADS-B
Thu 10:27:54 PM 29.1257 -81.3754 338° Northwest 424 488 35,000  Level FlightAware ADS-B
Thu 10:28:25 PM 29.1760 -81.3990 338° Northwest 423 487 35,000  Level FlightAware ADS-B
Thu 10:28:55 PM 29.2363 -81.4274 338° Northwest 424 488 35,000  Level FlightAware ADS-B
Thu 10:29:29 PM 29.3004 -81.4575 338° Northwest 425 489 35,000  Level FlightAware ADS-B
Thu 10:30:00 PM 29.3553 -81.4834 338° Northwest 426 490 35,000  Level FlightAware ADS-B
Thu 10:30:30 PM 29.4042 -81.5064 338° Northwest 424 488 35,000  Level FlightAware ADS-B
Thu 10:31:21 PM 29.4993 -81.5513 338° Northwest 425 489 35,000  Level FlightAware ADS-B
Thu 10:31:51 PM 29.5563 -81.5783 338° Northwest 425 489 35,000  Level FlightAware ADS-B
Thu 10:32:22 PM 29.6129 -81.6052 338° Northwest 423 487 35,000  Level FlightAware ADS-B
Thu 10:32:52 PM 29.6670 -81.6310 337° Northwest 422 486 35,000  Level FlightAware ADS-B
Thu 10:33:32 PM 29.7399 -81.6654 338° Northwest 422 486 35,000  Level FlightAware ADS-B
Thu 10:34:13 PM 29.8120 -81.7000 337° Northwest 423 487 35,000  Level FlightAware ADS-B
Thu 10:34:36 PM 29.8565 -81.7192 339° North 423 487 35,000  Level FlightAware ADS-B
Thu 10:35:08 PM 29.9169 -81.7401 343° North 424 488 35,000  Level FlightAware ADS-B
Thu 10:36:02 PM 30.0140 -81.7730 344° North 423 487 35,000  Level FlightAware ADS-B
Thu 10:36:38 PM 30.0850 -81.7970 344° North 422 486 35,000  Level FlightAware ADS-B
Thu 10:37:10 PM 30.1470 -81.8170 344° North 422 486 35,000  Level FlightAware ADS-B
Thu 10:37:45 PM 30.2120 -81.8390 344° North 422 486 35,000  Level FlightAware ADS-B
Thu 10:38:22 PM 30.2790 -81.8620 343° North 420 483 35,000  Level FlightAware ADS-B
Thu 10:38:52 PM 30.3340 -81.8810 343° North 421 484 35,000  Level FlightAware ADS-B
Thu 10:39:31 PM 30.4080 -81.9060 344° North 421 484 35,000  Level FlightAware ADS-B
Thu 10:40:07 PM 30.4760 -81.9290 344° North 421 484 35,000  Level FlightAware ADS-B
Thu 10:40:42 PM 30.5430 -81.9520 344° North 419 482 35,000  Level FlightAware ADS-B
Thu 10:41:13 PM 30.5980 -81.9710 343° North 420 483 35,000  Level FlightAware ADS-B
Thu 10:41:50 PM 30.6680 -81.9950 344° North 420 483 35,000  Level FlightAware ADS-B
Thu 10:42:25 PM 30.7330 -82.0170 344° North 421 484 35,000  Level FlightAware ADS-B
Thu 10:43:00 PM 30.7980 -82.0390 344° North 425 489 35,000  Level FlightAware ADS-B
Thu 10:43:36 PM 30.8700 -82.0630 344° North 424 488 35,000  Level FlightAware ADS-B
Thu 10:44:12 PM 30.9360 -82.0860 343° North 423 487 35,000  Level FlightAware ADS-B
Thu 10:44:45 PM 30.9970 -82.1070 344° North 422 486 35,000  Level FlightAware ADS-B
Thu 10:45:20 PM 31.0640 -82.1300 344° North 422 486 35,000  Level FlightAware ADS-B
Thu 10:45:52 PM 31.1220 -82.1500 344° North 421 484 35,000  Level FlightAware ADS-B
Thu 10:46:33 PM 31.2000 -82.1770 344° North 420 483 35,000  Level FlightAware ADS-B
Thu 10:47:05 PM 31.2610 -82.1980 344° North 421 484 35,000  Level FlightAware ADS-B
Thu 10:47:40 PM 31.3270 -82.2210 343° North 422 486 35,000  Level FlightAware ADS-B
Thu 10:48:17 PM 31.3960 -82.2450 343° North 424 488 35,000  Level FlightAware ADS-B
Thu 10:49:07 PM 31.4900 -82.2770 344° North 424 488 35,000  Level FlightAware ADS-B
Thu 10:49:39 PM 31.5510 -82.2980 344° North 422 486 35,000  Level FlightAware ADS-B
Thu 10:50:29 PM 31.6420 -82.3300 343° North 422 486 35,000  Level FlightAware ADS-B
Thu 10:51:04 PM 31.7080 -82.3530 343° North 423 487 35,000  Level FlightAware ADS-B
Thu 10:51:39 PM 31.7750 -82.3770 343° North 424 488 35,000  Level FlightAware ADS-B
Thu 10:52:16 PM 31.8440 -82.4010 344° North 425 489 35,000  Level FlightAware ADS-B
Thu 10:52:48 PM 31.9050 -82.4220 344° North 424 488 35,000  Level FlightAware ADS-B
Thu 10:53:26 PM 31.9760 -82.4470 343° North 423 487 35,000  Level FlightAware ADS-B
Thu 10:53:58 PM 32.0380 -82.4690 343° North 423 487 35,000  Level FlightAware ADS-B
Thu 10:54:32 PM 32.1020 -82.4910 344° North 424 488 35,000  Level FlightAware ADS-B
Thu 10:55:11 PM 32.1760 -82.5170 343° North 423 487 35,000  Level FlightAware ADS-B
Thu 10:55:40 PM 32.2290 -82.5360 343° North 423 487 35,000  Level FlightAware ADS-B
Thu 10:56:19 PM 32.3020 -82.5620 343° North 425 489 35,000  Level FlightAware ADS-B
Thu 10:56:53 PM 32.3680 -82.5850 344° North 426 490 35,000  Level FlightAware ADS-B
Thu 10:57:30 PM 32.4360 -82.6090 343° North 426 490 35,000  Level FlightAware ADS-B
Thu 10:58:03 PM 32.4990 -82.6320 343° North 424 488 35,000  Level FlightAware ADS-B
Thu 10:58:40 PM 32.5690 -82.6570 343° North 423 487 35,000  Level FlightAware ADS-B
Thu 10:59:14 PM 32.6330 -82.6800 343° North 425 489 35,000  Level FlightAware ADS-B
Thu 10:59:55 PM 32.7110 -82.7070 344° North 426 490 35,000  Level FlightAware ADS-B
Thu 11:00:28 PM 32.7700 -82.7280 343° North 425 489 35,000  Level FlightAware ADS-B
Thu 11:01:03 PM 32.8380 -82.7530 343° North 425 489 35,000  Level FlightAware ADS-B
Thu 11:01:42 PM 32.9120 -82.7800 343° North 426 490 35,000  Level FlightAware ADS-B
Thu 11:02:14 PM 32.9730 -82.8010 344° North 425 489 35,000  Level FlightAware ADS-B
Thu 11:02:51 PM 33.0410 -82.8260 343° North 425 489 35,000  Level FlightAware ADS-B
Thu 11:03:26 PM 33.1080 -82.8500 343° North 426 490 35,000  Level FlightAware ADS-B
Thu 11:04:02 PM 33.1760 -82.8740 344° North 425 489 35,000  Level FlightAware ADS-B
Thu 11:04:35 PM 33.2400 -82.8970 343° North 425 489 35,000  Level FlightAware ADS-B
Thu 11:05:11 PM 33.3070 -82.9220 343° North 424 488 35,000  Level FlightAware ADS-B
Thu 11:05:47 PM 33.3750 -82.9460 344° North 427 491 35,000  Level FlightAware ADS-B
Thu 11:06:20 PM 33.4360 -82.9690 343° North 428 493 35,000  Level FlightAware ADS-B
Thu 11:06:57 PM 33.5080 -82.9950 343° North 430 495 35,000  Level FlightAware ADS-B
Thu 11:07:31 PM 33.5690 -83.0170 343° North 430 495 35,000  Level FlightAware ADS-B
Thu 11:08:04 PM 33.6360 -83.0420 343° North 432 497 35,000  Level FlightAware ADS-B
Thu 11:08:41 PM 33.7070 -83.0680 343° North 432 497 35,000  Level FlightAware ADS-B
Thu 11:09:17 PM 33.7750 -83.0930 343° North 431 496 35,000  Level FlightAware ADS-B
Thu 11:09:52 PM 33.8420 -83.1170 343° North 430 495 35,000  Level FlightAware ADS-B
Thu 11:10:25 PM 33.9030 -83.1390 343° North 429 494 35,000  Level FlightAware ADS-B
Thu 11:11:00 PM 33.9700 -83.1640 343° North 427 491 35,000  Level FlightAware ADS-B
Thu 11:11:37 PM 34.0400 -83.1900 343° North 427 491 35,000  Level FlightAware ADS-B
Thu 11:12:12 PM 34.1060 -83.2140 343° North 427 491 35,000  Level FlightAware ADS-B
Thu 11:12:45 PM 34.1710 -83.2380 343° North 428 493 35,000  Level FlightAware ADS-B
Thu 11:13:13 PM 34.2237 -83.2579 343° North 429 494 35,000  Level FlightAware ADS-B
Thu 11:13:46 PM 34.2864 -83.2812 343° North 429 494 35,000  Level FlightAware ADS-B
Thu 11:14:17 PM 34.3446 -83.3028 343° North 429 494 35,000  Level FlightAware ADS-B
Thu 11:14:54 PM 34.4136 -83.3286 343° North 429 494 35,000  Level FlightAware ADS-B
Thu 11:15:27 PM 34.4758 -83.3518 343° North 425 489 35,000  Level FlightAware ADS-B
Thu 11:15:57 PM 34.5323 -83.3729 343° North 426 490 35,000  Level FlightAware ADS-B
Thu 11:16:27 PM 34.5901 -83.3944 343° North 426 490 35,000  Level FlightAware ADS-B
Thu 11:16:59 PM 34.6491 -83.4164 343° North 425 489 35,000  Level FlightAware ADS-B
Thu 11:17:47 PM 34.7397 -83.4505 343° North 426 490 35,000  Level FlightAware ADS-B
Thu 11:18:18 PM 34.7972 -83.4722 343° North 425 489 35,000  Level FlightAware ADS-B
Thu 11:18:49 PM 34.8558 -83.4943 343° North 426 490 35,000  Level FlightAware ADS-B
Thu 11:19:47 PM 34.9666 -83.5362 343° North 428 493 35,000  Level FlightAware ADS-B
Thu 11:20:18 PM 35.0239 -83.5579 343° North 432 497 35,000  Level FlightAware ADS-B
Thu 11:20:49 PM 35.0845 -83.5808 343° North 433 498 35,000  Level FlightAware ADS-B
Thu 11:21:19 PM 35.1418 -83.6025 343° North 431 496 35,000  Level FlightAware ADS-B
Thu 11:21:50 PM 35.1998 -83.6245 343° North 433 498 35,000  Level FlightAware ADS-B
Thu 11:22:20 PM 35.2572 -83.6465 343° North 434 499 35,000  Level FlightAware ADS-B
Thu 11:22:51 PM 35.3163 -83.6690 343° North 433 498 35,000  Level FlightAware ADS-B
Thu 11:23:21 PM 35.3750 -83.6913 343° North 433 498 35,000  Level FlightAware ADS-B
Thu 11:23:51 PM 35.4323 -83.7132 343° North 433 498 35,000  Level FlightAware ADS-B
Thu 11:24:22 PM 35.4910 -83.7356 343° North 434 499 35,000  Level FlightAware ADS-B
Thu 11:24:52 PM 35.5486 -83.7580 342° North 433 498 35,000  Level FlightAware ADS-B
Thu 11:25:24 PM 35.6098 -83.7815 343° North 434 499 35,000  Level FlightAware ADS-B
Thu 11:25:57 PM 35.6721 -83.8055 343° North 433 498 35,000  Level FlightAware ADS-B
Thu 11:26:27 PM 35.7306 -83.8279 343° North 434 499 35,000  Level FlightAware ADS-B
Thu 11:26:58 PM 35.7908 -83.8510 343° North 435 501 35,000  Level FlightAware ADS-B
Thu 11:27:29 PM 35.8497 -83.8737 343° North 435 501 35,000  Level FlightAware ADS-B
Thu 11:27:54 PM 35.8964 -83.8929 342° North 434 499 35,000  Level FlightAware ADS-B
Thu 11:28:25 PM 35.9544 -83.9244 336° Northwest 434 499 35,000 -194 Level FlightAware ADS-B
Thu 11:28:56 PM 36.0089 -83.9594 333° Northwest 432 497 34,800 -1,869 Descending FlightAware ADS-B
Thu 11:29:26 PM 36.0629 -83.9952 332° Northwest 438 504 33,100 -3,344 Descending FlightAware ADS-B
Thu 11:29:57 PM 36.1189 -84.0317 332° Northwest 446 513 31,400 -2,545 Descending FlightAware ADS-B
Thu 11:30:32 PM 36.1819 -84.0723 333° Northwest 443 510 30,300 -1,292 Descending FlightAware ADS-B
Thu 11:31:02 PM 36.2369 -84.1077 333° Northwest 441 507 30,000 -295 Descending FlightAware ADS-B
Thu 11:31:33 PM 36.2913 -84.1428 333° Northwest 441 507 30,000  Level FlightAware ADS-B
Thu 11:32:03 PM 36.3459 -84.1782 332° Northwest 443 510 30,000  Level FlightAware ADS-B
Thu 11:32:28 PM 36.3920 -84.2080 333° Northwest 444 511 30,000  Level FlightAware ADS-B
Thu 11:32:58 PM 36.4481 -84.2409 335° Northwest 445 512 30,000  Level FlightAware ADS-B
Thu 11:33:28 PM 36.5044 -84.2729 335° Northwest 445 512 30,000  Level FlightAware ADS-B
Thu 11:33:58 PM 36.5607 -84.3053 335° Northwest 446 513 30,000 -393 Level FlightAware ADS-B
Thu 11:34:29 PM 36.6178 -84.3385 335° Northwest 450 518 29,600 -1,180 Descending FlightAware ADS-B
Thu 11:34:59 PM 36.6749 -84.3722 335° Northwest 455 524 28,800 -1,360 Descending FlightAware ADS-B
Thu 11:35:44 PM 36.7603 -84.4222 335° Northwest 459 528 27,900 -1,109 Descending FlightAware ADS-B
Thu 11:36:31 PM 36.8522 -84.4762 335° Northwest 459 528 27,100 -1,077 Descending FlightAware ADS-B
Thu 11:37:02 PM 36.9109 -84.5108 335° Northwest 454 522 26,500 -1,258 Descending FlightAware ADS-B
Thu 11:37:33 PM 36.9686 -84.5448 335° Northwest 452 520 25,800 -2,066 Descending FlightAware ADS-B
Thu 11:38:03 PM 37.0251 -84.5782 335° Northwest 442 509 24,400 -2,852 Descending FlightAware ADS-B
Thu 11:38:34 PM 37.0813 -84.6114 335° Northwest 430 495 22,900 -3,000 Descending FlightAware ADS-B
Thu 11:39:05 PM 37.1361 -84.6439 335° Northwest 422 486 21,300 -3,097 Descending FlightAware ADS-B
Thu 11:39:36 PM 37.1908 -84.6762 335° Northwest 414 476 19,700 -3,048 Descending FlightAware ADS-B
Thu 11:40:08 PM 37.2467 -84.7094 335° Northwest 412 474 18,100 1,875 Descending FlightAware ADS-B
Thu 11:40:40 PM 37.2750 -84.7290 331° Northwest 424 488 21,700 3,176 Climbing FlightAware ADS-B
Thu 11:41:16 PM 37.3290 -84.7620 334° Northwest 424 488 21,700  Level FlightAware ADS-B
Thu 11:41:54 PM 37.3860 -84.7970 334° Northwest 424 488 21,700  Level FlightAware ADS-B
Thu 11:42:30 PM 37.4400 -84.8300 334° Northwest 424 488 21,700 -7,370 Level FlightAware ADS-B
Thu 11:43:26 PM 37.5661 -84.9000 334° Northwest 383 441 10,400 -6,051 Descending Indianapolis Center
Thu 11:44:27 PM 37.6522 -84.9542 334° Northwest 340 391 9,900 -1,066 Descending Indianapolis Center
Thu 11:50:17 PM 37.9410 -85.4240 334° Northwest 271 312 3,100 -1,165 Descending FlightAware ADS-B
Thu 11:50:43 PM 37.9550 -85.4600 296° West 265 305 2,600 -913 Descending FlightAware ADS-B
Thu 11:51:03 PM 37.9650 -85.4890 294° West 260 299 2,400 -316 Descending FlightAware ADS-B
Thu 11:51:21 PM 37.9730 -85.5140 292° West 258 297 2,400  Level FlightAware ADS-B
Thu 11:51:43 PM 37.9830 -85.5450 292° West 259 298 2,400  Level FlightAware ADS-B
Thu 11:52:05 PM 37.9940 -85.5750 295° West 245 282 2,400  Level FlightAware ADS-B
Thu 11:52:19 PM 38.0000 -85.5920 294° West 228 262 2,400  Level FlightAware ADS-B
Thu 11:52:39 PM 38.0080 -85.6160 293° West 216 249 2,400  Level FlightAware ADS-B
Thu 11:53:01 PM 38.0180 -85.6390 299° West 200 230 2,400  Level FlightAware ADS-B
Thu 11:53:15 PM 38.0240 -85.6530 299° West 189 217 2,400  Level FlightAware ADS-B
Thu 11:53:37 PM 38.0350 -85.6720 306° West 181 208 2,400  Level FlightAware ADS-B
Thu 11:53:53 PM 38.0460 -85.6830 322° Northwest 178 205 2,400  Level FlightAware ADS-B
Thu 11:53:57 PM 38.0480 -85.6840 339° North 176 203 2,400  Level FlightAware ADS-B
Thu 11:54:11 PM 38.0600 -85.6880 345° North 175 201 2,400 -343 Level FlightAware ADS-B
Thu 11:54:32 PM 38.0760 -85.6930 346° North 177 204 2,200 -833 Descending FlightAware ADS-B
Thu 11:54:47 PM 38.0880 -85.6970 345° North 177 204 1,900 -973 Descending FlightAware ADS-B
Thu 11:55:09 PM 38.1040 -85.7030 344° North 155 178 1,600 -882 Descending FlightAware ADS-B
Thu 11:55:21 PM 38.1120 -85.7060 344° North 144 166 1,400 -667 Descending FlightAware ADS-B
Thu 11:55:45 PM 38.1260 -85.7110 344° North 130 150 1,200 -529 Descending FlightAware ADS-B
Thu 11:55:55 PM 38.1330 -85.7130 347° North 129 148 1,100 -750 Descending FlightAware ADS-B
Thu 11:56:17 PM 38.1450 -85.7170 345° North 130 150 800 -682 Descending FlightAware ADS-B
Thu 11:56:39 PM 38.1580 -85.7210 346° North 129 148 600 -667 Descending FlightAware ADS-B
Thu 11:56:53 PM 38.1660 -85.7240 344° North 127 146 400 -857 Descending FlightAware ADS-B

Login

Don't have an account? Register now (free) for customized features, flight alerts, and more!